Time;durP1;ratioP1;P1;durP2;ratioP2;P2;SDS_P1;SDS_P2;PMS_P1;PMS_P2;Temp;Humidity;BMP_temperature;BMP_pressure;BME280_temperature;BME280_humidity;BME280_pressure;Samples;Min_cycle;Max_cycle;Signal;HPM_P1;HPM_P2
2022/06/06 00:00:00;;;;;;;9.43;3.65;;;15.60;99.90;;;;;;5015428;28;20044;-73
2022/06/06 00:02:27;;;;;;;4.10;3.42;;;15.70;99.90;;;;;;4315980;28;10001402;-73
2022/06/06 00:04:52;;;;;;;3.97;3.58;;;15.70;99.90;;;;;;5020078;28;20041;-73
2022/06/06 00:07:18;;;;;;;6.97;3.42;;;15.60;99.90;;;;;;5017093;28;20651;-74
2022/06/06 00:09:44;;;;;;;5.05;3.30;;;15.70;99.90;;;;;;5016482;28;20030;-73
2022/06/06 00:12:09;;;;;;;7.85;3.42;;;15.70;99.90;;;;;;5016581;28;20040;-73
2022/06/06 00:14:35;;;;;;;6.28;3.50;;;15.70;99.90;;;;;;5020134;28;20037;-74
2022/06/06 00:17:01;;;;;;;3.75;3.35;;;15.70;99.90;;;;;;5017049;28;20033;-74
2022/06/06 00:19:27;;;;;;;5.47;3.78;;;15.70;99.90;;;;;;5013298;28;20084;-73
2022/06/06 00:21:53;;;;;;;10.48;3.42;;;15.70;99.90;;;;;;5017003;28;20094;-73
2022/06/06 00:24:19;;;;;;;7.32;3.30;;;15.70;99.90;;;;;;5022344;28;20029;-73
2022/06/06 00:26:45;;;;;;;4.75;3.35;;;15.70;99.90;;;;;;5022718;28;20592;-73
2022/06/06 00:29:14;;;;;;;6.40;3.35;;;15.70;99.90;;;;;;5014525;28;20081;-73
2022/06/06 00:37:12;;;;;;;6.38;3.17;;;15.70;99.90;;;;;;5016896;28;20535;-73
2022/06/06 00:39:37;;;;;;;5.05;3.20;;;15.70;99.90;;;;;;5019995;28;20771;-73
2022/06/06 00:42:15;;;;;;;5.95;3.00;;;15.70;99.90;;;;;;5020383;28;20042;-73
2022/06/06 00:44:41;;;;;;;10.30;3.38;;;15.70;99.90;;;;;;5018755;28;20029;-73
2022/06/06 00:47:26;;;;;;;4.38;3.47;;;15.70;99.90;;;;;;5025841;28;20030;-73
2022/06/06 00:50:00;;;;;;;5.65;3.63;;;15.80;99.90;;;;;;5018054;28;20017;-73
2022/06/06 00:52:35;;;;;;;10.73;3.30;;;15.80;99.90;;;;;;5019143;28;20021;-73
2022/06/06 00:55:06;;;;;;;5.88;3.38;;;15.80;99.90;;;;;;5023188;28;20061;-73
2022/06/06 00:57:34;;;;;;;5.30;3.20;;;15.80;99.90;;;;;;5024646;28;20037;-73
2022/06/06 01:00:04;;;;;;;5.43;3.33;;;15.80;99.90;;;;;;5016649;28;20033;-73
2022/06/06 01:02:30;;;;;;;4.90;3.13;;;15.80;99.90;;;;;;5016822;28;20551;-73
2022/06/06 01:04:56;;;;;;;8.10;3.42;;;15.80;99.90;;;;;;5019597;28;20061;-73
2022/06/06 01:07:21;;;;;;;5.63;3.20;;;15.80;99.90;;;;;;5024111;28;20087;-72
2022/06/06 01:09:48;;;;;;;4.75;2.90;;;15.80;99.90;;;;;;5019561;28;20022;-73
2022/06/06 01:12:17;;;;;;;6.90;3.28;;;15.80;99.90;;;;;;5024853;28;20525;-73
2022/06/06 01:14:55;;;;;;;12.15;3.30;;;15.70;99.90;;;;;;5018964;28;20477;-73
2022/06/06 01:17:57;;;;;;;8.10;3.35;;;15.80;99.90;;;;;;5023358;28;20057;-73
2022/06/06 01:20:59;;;;;;;3.33;3.03;;;15.80;99.90;;;;;;5014289;28;20025;-73
2022/06/06 01:24:11;;;;;;;4.15;3.20;;;15.80;99.90;;;;;;5021181;28;20078;-74
2022/06/06 01:26:58;;;;;;;7.05;3.45;;;15.80;99.90;;;;;;5019681;28;20037;-73
2022/06/06 01:29:36;;;;;;;6.30;3.25;;;15.80;99.90;;;;;;5008419;28;20034;-73
2022/06/06 01:32:07;;;;;;;7.40;3.40;;;15.80;99.90;;;;;;5020506;28;21041;-73
2022/06/06 01:34:36;;;;;;;4.95;3.40;;;15.70;99.90;;;;;;5015449;28;20053;-73
2022/06/06 01:37:03;;;;;;;9.88;3.60;;;15.70;99.90;;;;;;5014062;28;20038;-73
2022/06/06 01:39:31;;;;;;;4.30;2.88;;;15.70;99.90;;;;;;5020229;28;20029;-73
2022/06/06 01:42:08;;;;;;;5.13;3.20;;;15.70;99.90;;;;;;5020647;28;20501;-72
2022/06/06 01:44:53;;;;;;;9.45;3.60;;;15.70;99.90;;;;;;5024916;28;20079;-73
2022/06/06 01:47:30;;;;;;;6.47;3.00;;;15.70;99.90;;;;;;5012073;28;20021;-73
2022/06/06 01:49:58;;;;;;;4.47;2.90;;;15.70;99.90;;;;;;5016016;28;20057;-72
2022/06/06 01:52:24;;;;;;;4.90;3.17;;;15.80;99.90;;;;;;5018547;28;20105;-73
2022/06/06 01:54:57;;;;;;;7.78;3.33;;;15.80;99.90;;;;;;5022816;28;20029;-73
2022/06/06 01:57:24;;;;;;;5.40;3.35;;;15.70;99.90;;;;;;5021220;28;20083;-73
2022/06/06 01:59:51;;;;;;;3.88;2.80;;;15.70;99.90;;;;;;5016490;28;20731;-72
2022/06/06 02:02:17;;;;;;;4.22;3.38;;;15.70;99.90;;;;;;5022639;28;20309;-73
2022/06/06 02:04:43;;;;;;;6.50;3.40;;;15.70;99.90;;;;;;5025813;28;20390;-73
2022/06/06 02:07:08;;;;;;;7.75;3.30;;;15.70;99.90;;;;;;5028042;28;20116;-73
2022/06/06 02:09:34;;;;;;;10.13;3.30;;;15.60;99.90;;;;;;5025278;28;20081;-73
2022/06/06 02:12:00;;;;;;;6.70;3.67;;;15.60;99.90;;;;;;5021624;28;20025;-73
2022/06/06 02:14:27;;;;;;;7.68;3.60;;;15.60;99.90;;;;;;5026804;28;20044;-73
2022/06/06 02:16:52;;;;;;;4.68;3.00;;;15.60;99.90;;;;;;5027607;28;20486;-73
2022/06/06 02:19:18;;;;;;;6.68;3.30;;;15.60;99.90;;;;;;5022895;28;20053;-73
2022/06/06 02:21:44;;;;;;;5.78;3.35;;;15.60;99.90;;;;;;5014783;28;20034;-73
2022/06/06 02:24:09;;;;;;;4.63;3.30;;;15.50;99.90;;;;;;5017067;28;20021;-73
2022/06/06 02:26:35;;;;;;;8.75;3.75;;;15.50;99.90;;;;;;5026504;28;20036;-73
2022/06/06 02:29:02;;;;;;;3.47;3.15;;;15.50;99.90;;;;;;5018749;28;20077;-73
2022/06/06 02:31:29;;;;;;;4.32;3.38;;;15.50;99.90;;;;;;5019561;28;20033;-73
2022/06/06 02:33:55;;;;;;;6.80;3.70;;;15.50;99.90;;;;;;5024358;28;20046;-74
2022/06/06 02:36:20;;;;;;;5.43;3.67;;;15.40;99.90;;;;;;5027390;28;20397;-73
2022/06/06 02:38:46;;;;;;;6.95;3.85;;;15.40;99.90;;;;;;5027600;28;20044;-73
2022/06/06 02:41:11;;;;;;;4.38;3.53;;;15.40;99.90;;;;;;5018940;28;20461;-73
2022/06/06 02:43:39;;;;;;;11.13;4.07;;;15.40;99.90;;;;;;5023887;28;20057;-73
2022/06/06 02:46:06;;;;;;;8.20;3.55;;;15.30;99.90;;;;;;5026820;28;20394;-73
2022/06/06 02:48:31;;;;;;;8.75;4.13;;;15.30;99.90;;;;;;5020285;28;20080;-73
2022/06/06 02:50:58;;;;;;;5.53;4.32;;;15.20;99.90;;;;;;5023093;28;20468;-74
2022/06/06 02:53:24;;;;;;;5.60;3.80;;;15.20;99.90;;;;;;5021737;28;20141;-74
2022/06/06 02:55:53;;;;;;;9.90;4.22;;;15.10;99.90;;;;;;5025199;28;20045;-73
2022/06/06 02:58:23;;;;;;;8.10;3.95;;;15.10;99.90;;;;;;5016054;28;20040;-73
2022/06/06 03:00:53;;;;;;;6.57;3.95;;;15.10;99.90;;;;;;5019670;28;20068;-73
2022/06/06 03:03:18;;;;;;;8.35;4.30;;;15.10;99.90;;;;;;5018438;28;20181;-73
2022/06/06 03:06:01;;;;;;;6.38;4.28;;;15.10;99.90;;;;;;5027459;28;20127;-73
2022/06/06 03:08:34;;;;;;;7.85;4.95;;;15.10;99.90;;;;;;5019314;28;20026;-72
2022/06/06 03:11:19;;;;;;;6.65;4.40;;;15.10;99.90;;;;;;5025374;28;20551;-73
2022/06/06 03:13:59;;;;;;;7.35;4.63;;;15.10;99.90;;;;;;5028519;28;20036;-73
2022/06/06 03:22:57;;;;;;;5.70;5.00;;;15.10;99.90;;;;;;5008987;28;20126;-73
2022/06/06 03:25:32;;;;;;;6.93;4.70;;;15.10;99.90;;;;;;5026212;28;20121;-73
2022/06/06 03:28:04;;;;;;;8.65;4.75;;;15.20;99.90;;;;;;5018221;28;20489;-73
2022/06/06 03:30:48;;;;;;;6.00;4.60;;;15.20;99.90;;;;;;5021554;28;20081;-73
2022/06/06 03:33:40;;;;;;;6.78;4.55;;;15.20;99.90;;;;;;5010367;28;20045;-73
2022/06/06 03:36:12;;;;;;;6.28;4.80;;;15.20;99.90;;;;;;5014450;28;20030;-74
2022/06/06 03:38:40;;;;;;;6.20;4.32;;;15.20;99.90;;;;;;5017617;28;20036;-73
2022/06/06 03:41:41;;;;;;;8.93;5.20;;;15.30;99.90;;;;;;4671583;28;10000183;-73
2022/06/06 03:44:24;;;;;;;11.20;5.30;;;15.30;99.90;;;;;;5017553;28;20034;-74
2022/06/06 03:47:24;;;;;;;8.85;5.28;;;15.30;99.90;;;;;;5019143;28;20025;-73
2022/06/06 03:50:10;;;;;;;7.35;5.80;;;15.30;99.90;;;;;;5013487;28;20108;-73
2022/06/06 03:52:46;;;;;;;9.60;5.00;;;15.30;99.90;;;;;;5018297;28;20267;-73
2022/06/06 03:55:32;;;;;;;8.57;5.28;;;15.30;99.90;;;;;;5018942;28;20479;-73
2022/06/06 03:58:00;;;;;;;6.07;5.47;;;15.40;99.90;;;;;;5016662;28;20034;-73
2022/06/06 04:00:26;;;;;;;6.20;5.22;;;15.40;99.90;;;;;;5016110;28;20080;-73
2022/06/06 04:02:55;;;;;;;9.95;5.30;;;15.50;99.90;;;;;;5014328;28;20022;-73
2022/06/06 04:05:22;;;;;;;9.77;5.65;;;15.60;99.90;;;;;;5022456;28;20030;-73
2022/06/06 04:07:48;;;;;;;8.10;5.40;;;15.60;99.90;;;;;;5020055;28;20094;-73
2022/06/06 04:10:14;;;;;;;5.65;5.03;;;15.80;99.90;;;;;;5016848;28;20034;-73
2022/06/06 04:12:52;;;;;;;7.82;4.68;;;16.30;99.90;;;;;;5015402;28;20069;-73
2022/06/06 04:15:40;;;;;;;8.48;4.50;;;17.30;99.90;;;;;;5018567;28;20736;-72
2022/06/06 04:18:36;;;;;;;7.72;4.50;;;17.80;99.90;;;;;;5007801;28;20462;-73
2022/06/06 04:21:07;;;;;;;11.10;5.20;;;17.40;99.90;;;;;;5016033;28;20048;-72
2022/06/06 04:23:51;;;;;;;9.57;5.22;;;17.00;99.90;;;;;;5018609;28;20029;-72
2022/06/06 04:26:50;;;;;;;13.10;5.55;;;16.70;99.90;;;;;;5013744;28;20118;-72
2022/06/06 04:29:24;;;;;;;9.55;5.18;;;16.50;99.90;;;;;;5022143;28;20033;-72
2022/06/06 04:32:09;;;;;;;9.23;5.55;;;16.30;99.90;;;;;;5011813;28;20037;-72
2022/06/06 04:34:54;;;;;;;7.03;5.93;;;16.30;99.90;;;;;;5013343;28;20044;-72
2022/06/06 04:38:01;;;;;;;10.50;5.82;;;16.30;99.90;;;;;;5020717;28;20033;-73
2022/06/06 04:40:54;;;;;;;7.22;5.55;;;16.30;99.90;;;;;;5006264;28;20485;-72
2022/06/06 04:43:25;;;;;;;10.68;5.85;;;16.30;99.90;;;;;;5017362;28;20076;-72
2022/06/06 04:46:14;;;;;;;8.52;6.20;;;16.30;99.90;;;;;;5021025;28;20481;-73
2022/06/06 04:48:40;;;;;;;7.53;6.07;;;16.30;99.90;;;;;;5011087;28;20108;-73
2022/06/06 04:51:07;;;;;;;8.77;5.45;;;16.40;99.90;;;;;;5012911;28;20139;-73
2022/06/06 04:53:40;;;;;;;9.43;5.80;;;16.40;99.90;;;;;;5017327;28;20037;-73
2022/06/06 04:56:08;;;;;;;10.65;6.32;;;16.50;99.90;;;;;;5023201;28;20497;-73
2022/06/06 04:58:35;;;;;;;7.30;5.60;;;16.50;99.90;;;;;;5016032;28;20051;-73
2022/06/06 05:01:03;;;;;;;12.05;6.22;;;16.40;99.90;;;;;;5012505;28;20038;-73
2022/06/06 05:03:29;;;;;;;8.60;6.20;;;16.40;99.90;;;;;;5012004;28;20143;-73
2022/06/06 05:06:27;;;;;;;7.65;6.13;;;16.40;99.90;;;;;;5020200;28;20557;-73
2022/06/06 05:08:58;;;;;;;11.18;5.97;;;16.30;99.90;;;;;;5012438;28;20026;-73
2022/06/06 05:11:34;;;;;;;9.82;6.38;;;16.40;99.90;;;;;;5016291;28;20045;-73
2022/06/06 05:14:08;;;;;;;8.07;6.03;;;16.40;99.90;;;;;;5020737;28;20059;-72
2022/06/06 05:17:05;;;;;;;9.25;5.97;;;16.50;99.90;;;;;;5018905;28;20044;-72
2022/06/06 05:19:40;;;;;;;6.85;5.35;;;16.50;99.90;;;;;;5016279;28;20030;-72
2022/06/06 05:22:46;;;;;;;12.02;6.32;;;16.60;99.90;;;;;;5013812;28;20029;-72
2022/06/06 05:25:34;;;;;;;13.32;6.00;;;16.70;99.90;;;;;;5015339;28;20493;-74
2022/06/06 05:28:31;;;;;;;7.88;5.50;;;16.60;99.90;;;;;;4976981;28;20040;-73
2022/06/06 05:31:05;;;;;;;6.30;5.70;;;16.60;99.90;;;;;;5012910;28;20029;-74
2022/06/06 05:33:49;;;;;;;8.45;6.47;;;16.60;99.90;;;;;;5022905;28;20129;-73
2022/06/06 05:36:22;;;;;;;8.88;6.25;;;16.60;99.90;;;;;;5022090;28;20124;-73
2022/06/06 05:39:09;;;;;;;10.20;6.40;;;16.60;99.90;;;;;;5021538;28;20034;-73
2022/06/06 05:41:48;;;;;;;7.75;6.35;;;16.50;99.90;;;;;;5017906;28;20067;-75
2022/06/06 05:44:19;;;;;;;8.10;6.45;;;16.50;99.90;;;;;;5025629;28;20394;-72
2022/06/06 05:47:00;;;;;;;8.65;6.32;;;16.50;99.90;;;;;;5026648;28;20030;-72
2022/06/06 05:49:26;;;;;;;10.82;6.93;;;16.40;99.90;;;;;;5022956;28;20108;-72
2022/06/06 05:52:14;;;;;;;9.02;6.78;;;16.40;99.90;;;;;;5022227;28;20087;-74
2022/06/06 05:55:01;;;;;;;10.32;7.55;;;16.30;99.90;;;;;;5025774;28;20666;-73
2022/06/06 05:57:36;;;;;;;11.57;7.60;;;16.30;99.90;;;;;;5023631;28;20438;-74
2022/06/06 06:00:19;;;;;;;10.48;7.50;;;16.30;99.90;;;;;;5012639;28;20041;-74
2022/06/06 06:03:04;;;;;;;;;;;16.40;99.90;;;;;;5017909;28;20033;-74
2022/06/06 06:05:29;;;;;;;;;;;16.50;99.90;;;;;;5027067;28;20559;-72
2022/06/06 06:08:04;;;;;;;10.20;7.45;;;16.60;99.90;;;;;;5018343;28;19909;-72
2022/06/06 06:10:53;;;;;;;11.43;6.95;;;16.70;99.90;;;;;;5013128;28;20078;-72
2022/06/06 06:13:50;;;;;;;9.75;7.22;;;16.90;99.90;;;;;;5017318;28;20555;-73
2022/06/06 06:16:21;;;;;;;12.07;7.45;;;17.20;99.90;;;;;;5022284;28;20022;-72
2022/06/06 06:18:53;;;;;;;9.68;6.78;;;17.50;99.90;;;;;;5024058;28;20660;-72
2022/06/06 06:21:23;;;;;;;10.68;6.15;;;17.70;99.90;;;;;;5015184;28;20057;-72
2022/06/06 06:24:06;;;;;;;10.63;6.50;;;17.90;99.90;;;;;;5020885;28;20109;-73
2022/06/06 06:26:32;;;;;;;12.68;6.43;;;18.00;99.90;;;;;;5019139;28;20040;-71
2022/06/06 06:29:05;;;;;;;9.45;5.90;;;18.10;99.90;;;;;;5014544;28;20037;-72
2022/06/06 06:31:47;;;;;;;8.73;5.43;;;18.20;99.90;;;;;;5022020;28;20262;-71
2022/06/06 06:34:26;;;;;;;8.47;5.97;;;18.30;99.90;;;;;;5019401;28;20041;-71
2022/06/06 06:37:10;;;;;;;7.00;5.47;;;18.50;99.90;;;;;;5013331;28;20842;-72
2022/06/06 06:39:57;;;;;;;6.63;5.15;;;18.60;99.90;;;;;;5016059;28;20549;-75
2022/06/06 06:42:56;;;;;;;6.82;5.13;;;18.90;99.90;;;;;;5007767;28;20044;-75
2022/06/06 06:45:27;;;;;;;8.07;5.55;;;19.00;99.90;;;;;;5019354;28;20543;-75
2022/06/06 06:47:58;;;;;;;8.23;5.90;;;19.20;99.90;;;;;;5009649;28;20029;-75
2022/06/06 06:50:32;;;;;;;8.65;6.18;;;19.30;99.90;;;;;;5024812;28;20028;-75
2022/06/06 06:53:10;;;;;;;10.88;5.28;;;19.20;99.90;;;;;;5017632;28;20026;-75
2022/06/06 06:55:36;;;;;;;11.65;5.70;;;19.00;99.90;;;;;;5010524;28;20025;-75
2022/06/06 06:58:24;;;;;;;8.23;5.55;;;19.00;99.90;;;;;;5010818;28;20101;-74
2022/06/06 07:01:05;;;;;;;8.43;5.20;;;19.10;99.90;;;;;;5015304;28;20444;-71
2022/06/06 07:10:17;;;;;;;6.57;4.85;;;19.90;99.90;;;;;;4670184;28;10000249;-76
2022/06/06 07:13:10;;;;;;;8.98;5.55;;;20.30;99.90;;;;;;5019848;28;20093;-74
2022/06/06 07:15:51;;;;;;;7.45;5.18;;;20.50;99.90;;;;;;5019205;28;20112;-74
2022/06/06 07:18:20;;;;;;;6.70;5.40;;;20.50;99.90;;;;;;5003797;28;20038;-74
2022/06/06 07:20:47;;;;;;;7.38;4.90;;;20.40;99.90;;;;;;5024762;28;20654;-74
2022/06/06 07:23:15;;;;;;;8.85;4.78;;;20.20;99.90;;;;;;5007491;28;20109;-74
2022/06/06 07:25:44;;;;;;;6.32;4.65;;;20.00;99.90;;;;;;5021428;28;20033;-74
2022/06/06 07:28:16;;;;;;;8.00;4.75;;;19.70;99.90;;;;;;5023724;28;20068;-74
2022/06/06 07:31:07;;;;;;;5.53;4.32;;;19.60;99.90;;;;;;5013120;28;20028;-74
2022/06/06 07:34:02;;;;;;;7.35;4.13;;;19.60;99.90;;;;;;5016614;28;20041;-75
2022/06/06 07:36:59;;;;;;;6.18;4.13;;;19.50;99.90;;;;;;5009701;28;20036;-74
2022/06/06 07:39:29;;;;;;;6.22;3.58;;;19.70;99.90;;;;;;5010857;28;20064;-76
2022/06/06 07:42:28;;;;;;;4.30;3.72;;;19.70;99.90;;;;;;5009974;28;20041;-75
2022/06/06 07:45:02;;;;;;;5.63;3.88;;;20.00;99.90;;;;;;5006525;28;20382;-75
2022/06/06 07:47:34;;;;;;;;;;;20.40;99.90;;;;;;5015562;28;20022;-75
2022/06/06 07:50:17;;;;;;;7.00;3.47;;;20.90;99.90;;;;;;5015162;28;20059;-75
2022/06/06 07:52:55;;;;;;;7.32;3.42;;;21.00;99.90;;;;;;5023241;28;20082;-74
2022/06/06 07:55:28;;;;;;;6.43;3.00;;;20.90;99.90;;;;;;5024387;28;20489;-73
2022/06/06 07:57:54;;;;;;;5.40;3.40;;;20.60;99.90;;;;;;5023185;28;20037;-73
2022/06/06 08:00:23;;;;;;;4.50;3.22;;;20.40;99.90;;;;;;5008901;28;20091;-76
2022/06/06 08:02:51;;;;;;;3.17;2.88;;;20.10;99.90;;;;;;5020251;28;20121;-76
2022/06/06 08:05:41;;;;;;;3.13;2.30;;;19.90;99.90;;;;;;5014651;28;20029;-76
2022/06/06 08:08:25;;;;;;;5.53;2.90;;;19.90;99.90;;;;;;5020556;28;20056;-76
2022/06/06 08:10:50;;;;;;;4.10;2.70;;;20.00;99.90;;;;;;5019450;28;20040;-75
2022/06/06 08:13:35;;;;;;;4.35;2.83;;;20.40;99.90;;;;;;5023068;28;20037;-76
2022/06/06 08:16:18;;;;;;;5.57;3.03;;;20.70;99.90;;;;;;5016078;28;20104;-76
2022/06/06 08:19:11;;;;;;;6.60;2.73;;;20.70;99.90;;;;;;5022360;28;20754;-75
2022/06/06 08:21:46;;;;;;;4.32;2.85;;;20.90;99.90;;;;;;5020875;28;20048;-76
2022/06/06 08:24:27;;;;;;;5.25;2.60;;;21.10;99.90;;;;;;5020496;28;20053;-75
2022/06/06 08:26:55;;;;;;;3.90;2.30;;;21.50;99.90;;;;;;5011214;28;20489;-75
2022/06/06 08:29:22;;;;;;;3.65;2.17;;;21.40;99.90;;;;;;5022413;28;20124;-74
2022/06/06 08:31:48;;;;;;;5.70;2.85;;;21.30;99.90;;;;;;5018207;28;20101;-75
2022/06/06 08:34:14;;;;;;;4.05;2.30;;;21.20;99.90;;;;;;5022431;28;20050;-76
2022/06/06 08:36:57;;;;;;;4.68;2.50;;;21.30;99.90;;;;;;5022833;28;20454;-75
2022/06/06 08:39:31;;;;;;;2.83;2.15;;;21.60;99.90;;;;;;5013898;28;20037;-76
2022/06/06 08:42:06;;;;;;;5.90;2.30;;;22.00;99.90;;;;;;5007425;28;20561;-76
2022/06/06 08:44:55;;;;;;;3.65;2.30;;;22.30;99.90;;;;;;5014359;28;20169;-76
2022/06/06 08:47:55;;;;;;;2.20;2.00;;;22.60;99.90;;;;;;5010006;28;20041;-76
2022/06/06 08:50:44;;;;;;;7.90;2.70;;;22.60;99.90;;;;;;5020819;28;20040;-76
2022/06/06 08:53:34;;;;;;;5.57;2.70;;;22.50;99.90;;;;;;5014116;28;20106;-75
2022/06/06 08:56:44;;;;;;;4.53;2.90;;;22.30;99.90;;;;;;5008605;28;20037;-75
2022/06/06 08:59:39;;;;;;;6.43;2.50;;;22.30;99.90;;;;;;5017016;28;20026;-75
2022/06/06 09:02:24;;;;;;;6.78;2.00;;;22.50;99.90;;;;;;5019989;28;20052;-76
2022/06/06 09:05:26;;;;;;;3.33;2.67;;;22.70;99.90;;;;;;5013879;28;20018;-76
2022/06/06 09:08:01;;;;;;;3.60;2.25;;;22.60;99.90;;;;;;5020478;28;20177;-75
2022/06/06 09:11:00;;;;;;;2.92;2.60;;;22.30;99.90;;;;;;5015138;28;20038;-77
2022/06/06 09:13:34;;;;;;;4.22;2.40;;;22.10;99.90;;;;;;5007144;28;20691;-77
2022/06/06 09:16:38;;;;;;;2.83;2.40;;;22.00;99.90;;;;;;5015771;28;20034;-77
2022/06/06 09:19:27;;;;;;;2.42;2.10;;;22.30;99.90;;;;;;5020436;28;20650;-77
2022/06/06 09:21:56;;;;;;;2.45;2.10;;;22.60;99.90;;;;;;5017006;28;20052;-75
2022/06/06 09:24:33;;;;;;;5.40;2.40;;;22.70;99.90;;;;;;5012828;28;20026;-76
2022/06/06 09:27:30;;;;;;;2.35;2.13;;;22.90;99.90;;;;;;5007614;28;20647;-76
2022/06/06 09:30:08;;;;;;;3.33;2.10;;;23.30;99.90;;;;;;5008247;28;20084;-77
2022/06/06 09:33:11;;;;;;;4.57;1.85;;;23.50;99.90;;;;;;5008640;28;20045;-77
2022/06/06 09:35:51;;;;;;;1.80;1.70;;;23.70;99.90;;;;;;5004340;28;20498;-78
2022/06/06 09:38:43;;;;;;;2.63;1.80;;;24.00;99.90;;;;;;5010216;28;20111;-78
2022/06/06 09:41:27;;;;;;;2.25;1.60;;;24.10;98.60;;;;;;4979056;28;21865;-76
2022/06/06 09:44:13;;;;;;;5.47;2.13;;;24.10;97.20;;;;;;5023129;28;20094;-76
2022/06/06 09:46:43;;;;;;;2.78;1.75;;;23.70;96.70;;;;;;5013922;28;20029;-76
2022/06/06 09:49:28;;;;;;;4.32;1.80;;;23.30;97.20;;;;;;5017852;28;20033;-77
2022/06/06 09:51:59;;;;;;;3.85;2.00;;;22.50;99.90;;;;;;5020230;28;20056;-76
2022/06/06 10:01:06;;;;;;;9.95;2.00;;;21.50;99.90;;;;;;5013311;28;20052;-76
2022/06/06 10:03:38;;;;;;;3.13;2.10;;;21.20;99.90;;;;;;4973597;28;20825;-76
2022/06/06 10:06:43;;;;;;;3.08;2.40;;;21.00;99.90;;;;;;5019571;28;20517;-77
2022/06/06 10:09:30;;;;;;;2.47;2.20;;;20.70;99.90;;;;;;5015676;28;20429;-76
2022/06/06 10:12:17;;;;;;;3.03;1.98;;;20.50;99.90;;;;;;5021292;28;20060;-76
2022/06/06 10:15:02;;;;;;;2.67;2.20;;;20.20;99.90;;;;;;5020142;28;20141;-77
2022/06/06 10:18:12;;;;;;;4.15;2.13;;;20.00;99.90;;;;;;5023609;28;20421;-76
2022/06/06 10:20:46;;;;;;;4.75;2.30;;;19.90;99.90;;;;;;5009539;28;20030;-77
2022/06/06 10:23:33;;;;;;;2.63;1.95;;;19.80;99.90;;;;;;5026052;28;20036;-76
2022/06/06 10:26:02;;;;;;;3.97;1.88;;;19.70;99.90;;;;;;5010069;28;20026;-76
2022/06/06 10:28:58;;;;;;;2.28;1.88;;;19.80;99.90;;;;;;5010621;28;20665;-77
2022/06/06 10:31:51;;;;;;;2.75;1.77;;;19.80;99.90;;;;;;5021742;28;20104;-77
2022/06/06 10:34:29;;;;;;;3.42;1.85;;;19.90;99.90;;;;;;5026408;28;20175;-76
2022/06/06 10:37:28;;;;;;;2.63;1.80;;;19.90;99.90;;;;;;5020004;28;20083;-77
2022/06/06 10:40:24;;;;;;;2.20;2.00;;;19.90;99.90;;;;;;5006213;28;20038;-77
2022/06/06 10:43:14;;;;;;;5.47;2.28;;;19.90;99.90;;;;;;5026743;28;20472;-77
2022/06/06 10:45:48;;;;;;;3.05;2.13;;;19.90;99.90;;;;;;5025136;28;20025;-76
2022/06/06 10:48:41;;;;;;;3.28;1.95;;;19.90;99.90;;;;;;5015866;28;20022;-77
2022/06/06 10:51:42;;;;;;;4.40;2.00;;;19.90;99.90;;;;;;5019777;28;20041;-76
2022/06/06 10:54:16;;;;;;;7.05;2.28;;;19.90;99.90;;;;;;4987357;28;20037;-75
2022/06/06 10:57:21;;;;;;;2.22;2.05;;;19.80;99.90;;;;;;5025239;28;20087;-76
2022/06/06 10:59:56;;;;;;;2.88;2.20;;;19.70;99.90;;;;;;5013754;28;20540;-76
2022/06/06 11:02:48;;;;;;;3.78;2.22;;;19.60;99.90;;;;;;5025335;28;20171;-75
2022/06/06 11:05:25;;;;;;;5.90;2.13;;;19.60;99.90;;;;;;5013542;28;20472;-78
2022/06/06 11:08:07;;;;;;;2.05;1.95;;;19.50;99.90;;;;;;5026010;28;20022;-76
2022/06/06 11:10:55;;;;;;;4.65;2.33;;;19.50;99.90;;;;;;5016090;28;20778;-77
2022/06/06 11:13:55;;;;;;;4.85;2.28;;;19.50;99.90;;;;;;5012251;28;20498;-79
2022/06/06 11:16:39;;;;;;;3.92;2.05;;;19.40;99.90;;;;;;5019884;28;20037;-76
2022/06/06 11:19:35;;;;;;;3.53;2.10;;;19.40;99.90;;;;;;5022748;28;20064;-76
2022/06/06 11:22:15;;;;;;;3.63;1.90;;;19.50;99.90;;;;;;5017813;28;20151;-76
2022/06/06 11:25:02;;;;;;;2.70;1.90;;;19.50;99.90;;;;;;5014457;28;20528;-76
2022/06/06 11:27:53;;;;;;;3.88;2.00;;;19.60;99.90;;;;;;5006597;28;20028;-76
2022/06/06 11:30:27;;;;;;;3.47;2.47;;;19.80;99.90;;;;;;5016074;28;20171;-77
2022/06/06 11:33:21;;;;;;;4.82;2.20;;;20.00;99.90;;;;;;5016939;28;20050;-78
2022/06/06 11:36:11;;;;;;;3.92;2.00;;;20.20;99.90;;;;;;5006312;28;20034;-78
2022/06/06 11:39:01;;;;;;;3.30;1.70;;;20.30;99.90;;;;;;5019532;28;20200;-78
2022/06/06 11:41:51;;;;;;;2.83;1.88;;;20.40;99.90;;;;;;5008999;28;20069;-79
2022/06/06 11:44:45;;;;;;;1.92;1.80;;;20.40;99.90;;;;;;5023993;28;20081;-78
2022/06/06 11:47:13;;;;;;;2.30;1.90;;;20.50;99.90;;;;;;5015550;28;20040;-78
2022/06/06 11:49:58;;;;;;;2.25;2.00;;;20.40;99.90;;;;;;5008155;28;20049;-79
2022/06/06 11:52:50;;;;;;;2.25;1.80;;;20.40;99.90;;;;;;5008417;28;20048;-77
2022/06/06 11:55:21;;;;;;;6.45;1.95;;;20.40;99.90;;;;;;5024032;28;20045;-77
2022/06/06 11:57:50;;;;;;;1.83;1.65;;;20.50;99.90;;;;;;5024941;28;20033;-77
2022/06/06 12:00:44;;;;;;;3.72;1.77;;;20.90;99.90;;;;;;5017829;28;20034;-79
2022/06/06 12:03:34;;;;;;;1.90;1.58;;;21.40;99.90;;;;;;5013168;28;20689;-78
2022/06/06 12:06:12;;;;;;;1.65;1.50;;;22.00;99.90;;;;;;5014426;28;20040;-77
2022/06/06 12:08:59;;;;;;;1.65;1.23;;;22.50;99.90;;;;;;5021328;28;20017;-76
2022/06/06 12:11:27;;;;;;;1.95;1.48;;;22.80;99.90;;;;;;5020731;28;20033;-80
2022/06/06 12:14:25;;;;;;;2.22;1.30;;;23.10;99.90;;;;;;5011962;28;20042;-80
2022/06/06 12:17:12;;;;;;;2.35;1.58;;;23.40;99.90;;;;;;4978429;28;20080;-79
2022/06/06 12:20:06;;;;;;;1.48;1.38;;;23.60;99.90;;;;;;5021554;28;20056;-80
2022/06/06 12:22:39;;;;;;;;;;;23.90;99.80;;;;;;5019522;28;20029;-79
2022/06/06 12:25:11;;;;;;;3.75;1.20;;;24.10;97.20;;;;;;5021211;28;20000;-79
2022/06/06 12:28:15;;;;;;;1.50;1.40;;;24.20;95.00;;;;;;5019469;28;20025;-79
2022/06/06 12:30:49;;;;;;;1.88;1.20;;;24.40;93.60;;;;;;5012218;28;20034;-77
2022/06/06 12:33:33;;;;;;;1.48;1.23;;;24.40;93.10;;;;;;5014353;28;20056;-77
2022/06/06 12:36:01;;;;;;;1.20;1.10;;;24.60;92.50;;;;;;5008606;28;20046;-78
2022/06/06 12:38:38;;;;;;;1.33;0.98;;;24.60;92.00;;;;;;5010837;28;20028;-76
2022/06/06 12:41:39;;;;;;;2.55;1.00;;;24.80;86.30;;;;;;5023121;28;20086;-78
2022/06/06 12:44:38;;;;;;;2.28;1.10;;;25.00;82.70;;;;;;4962681;28;20124;-77
2022/06/06 12:47:26;;;;;;;2.28;1.00;;;25.20;82.60;;;;;;5012940;28;20101;-76
2022/06/06 12:50:19;;;;;;;1.55;1.10;;;25.30;81.50;;;;;;5017814;28;20516;-76
2022/06/06 12:53:21;;;;;;;;;;;25.40;78.20;;;;;;5005844;28;20038;-78
2022/06/06 12:56:23;;;;;;;4.00;0.90;;;24.90;70.90;;;;;;4952113;28;19936;-77
2022/06/06 12:59:24;;;;;;;2.50;0.80;;;24.70;71.80;;;;;;5004339;28;20674;-78
2022/06/06 13:02:05;;;;;;;2.45;0.90;;;24.90;74.80;;;;;;4993159;28;20490;-76
2022/06/06 13:04:58;;;;;;;1.73;0.70;;;25.00;77.90;;;;;;5021612;28;20032;-80
2022/06/06 13:07:34;;;;;;;2.90;0.90;;;25.10;70.00;;;;;;5021016;28;20336;-77
2022/06/06 13:10:12;;;;;;;1.10;0.80;;;25.00;70.40;;;;;;5006548;28;20030;-77
2022/06/06 13:13:00;;;;;;;1.55;0.80;;;24.70;70.30;;;;;;5023640;28;20034;-78
2022/06/06 13:15:45;;;;;;;0.93;0.63;;;24.40;70.20;;;;;;5015158;28;20037;-77
2022/06/06 13:18:23;;;;;;;3.00;0.70;;;24.10;68.80;;;;;;5020612;28;20095;-78
2022/06/06 13:21:02;;;;;;;3.75;0.68;;;23.70;70.70;;;;;;5018393;28;20524;-78
2022/06/06 13:23:58;;;;;;;1.15;0.77;;;23.40;72.20;;;;;;5022721;28;20033;-79
2022/06/06 13:26:38;;;;;;;1.75;0.75;;;22.90;74.40;;;;;;5023198;28;20032;-78
2022/06/06 13:29:05;;;;;;;1.58;0.90;;;22.60;74.00;;;;;;5006701;28;20533;-78
2022/06/06 13:31:54;;;;;;;3.25;0.75;;;22.40;74.20;;;;;;5012692;28;20074;-79
2022/06/06 13:34:32;;;;;;;2.45;0.70;;;22.20;74.70;;;;;;5023343;28;20038;-77
2022/06/06 13:37:16;;;;;;;3.03;0.80;;;22.00;75.20;;;;;;5021174;28;20456;-77
2022/06/06 13:39:44;;;;;;;3.05;0.75;;;22.00;75.30;;;;;;5013976;28;23134;-78
2022/06/06 13:42:19;;;;;;;1.85;0.70;;;22.00;74.90;;;;;;5023264;28;20030;-78
2022/06/06 13:44:47;;;;;;;3.17;1.70;;;22.00;75.40;;;;;;5011140;28;20721;-77
2022/06/06 13:47:44;;;;;;;2.65;0.98;;;22.00;76.90;;;;;;5008134;28;20033;-77
2022/06/06 13:50:33;;;;;;;3.30;0.85;;;21.90;78.90;;;;;;5020597;28;20025;-77
2022/06/06 13:53:36;;;;;;;5.30;0.90;;;21.70;86.60;;;;;;5025392;28;20462;-78
2022/06/06 13:56:15;;;;;;;1.30;0.90;;;21.50;90.90;;;;;;5025892;28;20048;-79
2022/06/06 13:58:56;;;;;;;1.20;0.90;;;21.40;93.60;;;;;;5018425;28;20037;-79
2022/06/06 14:01:24;;;;;;;2.33;0.70;;;21.40;97.50;;;;;;5023282;28;20040;-81
2022/06/06 14:04:25;;;;;;;7.85;1.00;;;21.50;99.80;;;;;;5023124;28;20457;-81
2022/06/06 14:07:14;;;;;;;1.23;0.80;;;21.80;99.10;;;;;;5017120;28;20112;-81
2022/06/06 14:09:42;;;;;;;1.92;0.73;;;21.60;99.50;;;;;;5008036;28;20033;-81
2022/06/06 14:12:13;;;;;;;3.17;0.77;;;21.50;99.90;;;;;;5018601;28;20030;-81
2022/06/06 14:14:39;;;;;;;1.05;0.57;;;21.30;99.20;;;;;;5022843;28;20025;-81